Time;durP1;ratioP1;P1;durP2;ratioP2;P2;SDS_P1;SDS_P2;PMS_P1;PMS_P2;Temp;Humidity;BMP_temperature;BMP_pressure;BME280_temperature;BME280_humidity;BME280_pressure;Samples;Min_cycle;Max_cycle;Signal;HPM_P1;HPM_P2
2022/03/26 00:00:17;;;;;;;;;;;22.50;27.80;;;;;;692067;28;1337;-81
2022/03/26 00:00:38;;;;;;;;;;;22.50;27.40;;;;;;692989;28;775;-84
2022/03/26 00:01:00;;;;;;;;;;;22.40;27.80;;;;;;693368;28;827;-85
2022/03/26 00:01:20;;;;;;;;;;;22.40;27.80;;;;;;695715;28;830;-86
2022/03/26 00:01:41;;;;;;;;;;;22.50;27.50;;;;;;695429;28;921;-86
2022/03/26 00:02:01;;;;;;;;;;;22.40;27.50;;;;;;695672;28;795;-86
2022/03/26 00:02:22;;;;;;;;;;;22.40;28.10;;;;;;695408;28;1087;-86
2022/03/26 00:02:44;;;;;;;;;;;22.40;27.40;;;;;;695773;28;898;-87
2022/03/26 00:03:04;;;;;;;;;;;22.40;27.30;;;;;;692917;28;1214;-86
2022/03/26 00:03:25;;;;;;;;;;;22.40;27.50;;;;;;693100;28;835;-87
2022/03/26 00:03:45;;;;;;;;;;;22.40;27.40;;;;;;692970;28;934;-86
2022/03/26 00:04:06;;;;;;;;;;;22.40;27.50;;;;;;693381;28;779;-84
2022/03/26 00:04:28;;;;;;;;;;;22.40;27.80;;;;;;696046;28;1008;-83
2022/03/26 00:04:48;;;;;;;;;;;22.40;27.90;;;;;;695835;28;885;-86
2022/03/26 00:05:09;;;;;;;;;;;22.40;27.50;;;;;;695653;28;1198;-86
2022/03/26 00:05:29;;;;;;;;;;;22.40;27.40;;;;;;695758;28;890;-86
2022/03/26 00:05:50;;;;;;;;;;;22.40;28.00;;;;;;696088;28;1087;-87
2022/03/26 00:06:12;;;;;;;;;;;22.40;27.50;;;;;;695871;28;1052;-85
2022/03/26 00:06:32;;;;;;;;;;;22.40;27.80;;;;;;696133;28;810;-87
2022/03/26 00:06:53;;;;;;;;;;;22.40;27.50;;;;;;696417;28;1095;-87
2022/03/26 00:07:13;;;;;;;;;;;22.40;27.70;;;;;;696036;28;957;-86
2022/03/26 00:07:34;;;;;;;;;;;22.40;27.50;;;;;;696014;28;893;-85
2022/03/26 00:07:55;;;;;;;;;;;22.40;27.30;;;;;;696006;28;811;-83
2022/03/26 00:08:15;;;;;;;;;;;22.40;27.50;;;;;;696064;28;843;-87
2022/03/26 00:08:36;;;;;;;;;;;22.40;27.60;;;;;;695890;28;846;-87
2022/03/26 00:08:57;;;;;;;;;;;22.40;27.30;;;;;;694901;28;1251;-83
2022/03/26 00:09:17;;;;;;;;;;;22.40;27.50;;;;;;696366;28;767;-84
2022/03/26 00:09:38;;;;;;;;;;;22.40;27.40;;;;;;694161;28;1161;-82
2022/03/26 00:09:58;;;;;;;;;;;22.40;27.20;;;;;;693993;28;958;-86
2022/03/26 00:10:19;;;;;;;;;;;22.40;27.70;;;;;;693925;28;831;-85
2022/03/26 00:10:40;;;;;;;;;;;22.40;27.30;;;;;;694405;28;818;-85
2022/03/26 00:11:00;;;;;;;;;;;22.40;27.10;;;;;;696785;28;1013;-85
2022/03/26 00:11:21;;;;;;;;;;;22.40;27.40;;;;;;697035;28;1111;-85
2022/03/26 00:11:42;;;;;;;;;;;22.40;27.20;;;;;;696990;28;754;-85
2022/03/26 00:12:03;;;;;;;;;;;22.40;27.20;;;;;;696922;28;1222;-87
2022/03/26 00:12:23;;;;;;;;;;;22.40;27.10;;;;;;693673;28;1246;-87
2022/03/26 00:12:44;;;;;;;;;;;22.40;27.10;;;;;;694153;28;1122;-84
2022/03/26 00:13:04;;;;;;;;;;;22.40;27.10;;;;;;694183;28;779;-88
2022/03/26 00:13:25;;;;;;;;;;;22.40;27.10;;;;;;694411;28;957;-86
2022/03/26 00:13:45;;;;;;;;;;;22.40;27.60;;;;;;694758;28;829;-87
2022/03/26 00:14:06;;;;;;;;;;;22.30;27.10;;;;;;694461;28;1299;-87
2022/03/26 00:14:27;;;;;;;;;;;22.40;27.10;;;;;;696987;28;880;-85
2022/03/26 00:14:47;;;;;;;;;;;22.40;27.10;;;;;;696691;28;814;-83
2022/03/26 00:15:08;;;;;;;;;;;22.40;27.10;;;;;;696868;28;890;-86
2022/03/26 00:15:29;;;;;;;;;;;22.40;27.10;;;;;;697068;28;1024;-88
2022/03/26 00:15:49;;;;;;;;;;;22.30;27.10;;;;;;697300;28;995;-85
2022/03/26 00:16:10;;;;;;;;;;;22.30;27.30;;;;;;697084;28;858;-86
2022/03/26 00:16:32;;;;;;;;;;;22.40;27.10;;;;;;698951;28;1119;-86
2022/03/26 00:16:52;;;;;;;;;;;22.40;27.00;;;;;;698522;28;1906;-89
2022/03/26 00:17:13;;;;;;;;;;;22.40;27.10;;;;;;697517;28;841;-88
2022/03/26 00:17:34;;;;;;;;;;;22.30;26.90;;;;;;694248;28;1203;-88
2022/03/26 00:17:55;;;;;;;;;;;22.40;27.10;;;;;;694411;28;1291;-86
2022/03/26 00:18:17;;;;;;;;;;;22.40;27.50;;;;;;696154;28;1365;-88
2022/03/26 00:18:38;;;;;;;;;;;22.40;27.10;;;;;;696923;28;1192;-86
2022/03/26 00:18:59;;;;;;;;;;;22.40;27.10;;;;;;697038;28;889;-85
2022/03/26 00:19:20;;;;;;;;;;;22.30;27.50;;;;;;696999;28;983;-86
2022/03/26 00:19:40;;;;;;;;;;;22.30;27.20;;;;;;696943;28;874;-86
2022/03/26 00:20:01;;;;;;;;;;;22.40;27.20;;;;;;697040;28;880;-86
2022/03/26 00:20:21;;;;;;;;;;;22.30;27.10;;;;;;696920;28;1224;-87
2022/03/26 00:20:42;;;;;;;;;;;22.30;27.20;;;;;;696798;28;829;-86
2022/03/26 00:21:03;;;;;;;;;;;22.40;27.10;;;;;;696953;28;794;-86
2022/03/26 00:21:23;;;;;;;;;;;22.30;27.10;;;;;;697083;28;798;-87
2022/03/26 00:21:45;;;;;;;;;;;22.40;27.10;;;;;;696809;28;793;-86
2022/03/26 00:22:06;;;;;;;;;;;22.30;27.10;;;;;;696981;28;826;-87
2022/03/26 00:22:27;;;;;;;;;;;22.30;27.50;;;;;;696694;28;870;-86
2022/03/26 00:22:47;;;;;;;;;;;22.30;27.10;;;;;;696908;28;873;-86
2022/03/26 00:23:08;;;;;;;;;;;22.30;27.00;;;;;;696838;28;854;-86
2022/03/26 00:23:28;;;;;;;;;;;22.30;27.00;;;;;;694468;28;1209;-87
2022/03/26 00:23:49;;;;;;;;;;;22.30;27.20;;;;;;694233;28;865;-86
2022/03/26 00:24:10;;;;;;;;;;;22.30;27.10;;;;;;694617;28;877;-87
2022/03/26 00:24:31;;;;;;;;;;;22.30;27.20;;;;;;696894;28;778;-86
2022/03/26 00:24:51;;;;;;;;;;;22.30;27.20;;;;;;696970;28;798;-85
2022/03/26 00:25:15;;;;;;;;;;;22.30;27.10;;;;;;696976;28;866;-85
2022/03/26 00:25:36;;;;;;;;;;;22.30;27.30;;;;;;696638;28;1330;-87
2022/03/26 00:25:58;;;;;;;;;;;22.30;27.00;;;;;;696793;28;909;-85
2022/03/26 00:26:18;;;;;;;;;;;22.30;27.10;;;;;;696963;28;798;-85
2022/03/26 00:26:39;;;;;;;;;;;22.30;27.10;;;;;;696797;28;1023;-85
2022/03/26 00:26:59;;;;;;;;;;;22.30;27.60;;;;;;696916;28;790;-86
2022/03/26 00:27:20;;;;;;;;;;;22.30;27.20;;;;;;697078;28;813;-87
2022/03/26 00:27:41;;;;;;;;;;;22.30;27.10;;;;;;699457;28;1277;-86
2022/03/26 00:28:01;;;;;;;;;;;22.30;27.30;;;;;;696282;28;1266;-85
2022/03/26 00:28:22;;;;;;;;;;;22.30;27.70;;;;;;696917;28;862;-86
2022/03/26 00:28:42;;;;;;;;;;;22.30;27.60;;;;;;697080;28;984;-86
2022/03/26 00:29:03;;;;;;;;;;;22.30;27.30;;;;;;698170;28;1452;-86
2022/03/26 00:29:23;;;;;;;;;;;22.30;27.20;;;;;;697676;28;1047;-78
2022/03/26 00:29:44;;;;;;;;;;;22.30;27.30;;;;;;698394;28;857;-86
2022/03/26 00:30:05;;;;;;;;;;;22.30;27.30;;;;;;698410;28;1148;-84
2022/03/26 00:30:26;;;;;;;;;;;22.30;27.10;;;;;;698469;28;988;-85
2022/03/26 00:30:46;;;;;;;;;;;22.30;27.00;;;;;;698561;28;838;-85
2022/03/26 00:31:07;;;;;;;;;;;22.30;27.10;;;;;;698062;28;848;-84
2022/03/26 00:31:29;;;;;;;;;;;22.30;27.10;;;;;;697585;28;1184;-79
2022/03/26 00:31:50;;;;;;;;;;;22.30;27.20;;;;;;695527;28;1174;-81
2022/03/26 00:32:12;;;;;;;;;;;22.30;27.10;;;;;;697936;28;841;-86
2022/03/26 00:32:33;;;;;;;;;;;22.30;27.10;;;;;;698297;28;976;-85
2022/03/26 00:32:54;;;;;;;;;;;22.30;27.10;;;;;;698267;28;1060;-82
2022/03/26 00:33:14;;;;;;;;;;;22.30;27.10;;;;;;697671;28;826;-83
2022/03/26 00:33:35;;;;;;;;;;;22.30;27.20;;;;;;697735;28;896;-80
2022/03/26 00:33:55;;;;;;;;;;;22.30;28.20;;;;;;698592;28;841;-86
2022/03/26 00:34:16;;;;;;;;;;;22.30;27.20;;;;;;698455;28;810;-86
2022/03/26 00:34:37;;;;;;;;;;;22.30;27.30;;;;;;697394;28;825;-80
2022/03/26 00:34:57;;;;;;;;;;;22.30;27.10;;;;;;697032;28;778;-81
2022/03/26 00:35:18;;;;;;;;;;;22.30;27.30;;;;;;697119;28;837;-81
2022/03/26 00:35:39;;;;;;;;;;;22.30;27.20;;;;;;697073;28;861;-85
2022/03/26 00:35:59;;;;;;;;;;;22.30;27.50;;;;;;693880;28;1334;-86
2022/03/26 00:36:20;;;;;;;;;;;22.30;27.20;;;;;;694226;28;881;-85
2022/03/26 00:36:40;;;;;;;;;;;22.30;27.20;;;;;;691247;28;1082;-80
2022/03/26 00:37:01;;;;;;;;;;;22.30;27.20;;;;;;691144;28;1961;-82
2022/03/26 00:37:21;;;;;;;;;;;22.30;27.50;;;;;;691311;28;969;-85
2022/03/26 00:37:42;;;;;;;;;;;22.30;27.10;;;;;;691717;28;902;-86
2022/03/26 00:38:03;;;;;;;;;;;22.20;27.50;;;;;;696842;28;857;-85
2022/03/26 00:38:23;;;;;;;;;;;22.30;27.30;;;;;;694284;28;1197;-81
2022/03/26 00:38:44;;;;;;;;;;;22.30;27.40;;;;;;696841;28;801;-81
2022/03/26 00:39:05;;;;;;;;;;;22.30;27.30;;;;;;696824;28;814;-82
2022/03/26 00:39:26;;;;;;;;;;;22.30;27.30;;;;;;696832;28;858;-80
2022/03/26 00:39:46;;;;;;;;;;;22.30;27.20;;;;;;696970;28;842;-83
2022/03/26 00:40:08;;;;;;;;;;;22.30;27.30;;;;;;696922;28;861;-85
2022/03/26 00:40:28;;;;;;;;;;;22.20;27.20;;;;;;697025;28;1204;-86
2022/03/26 00:40:49;;;;;;;;;;;22.30;27.50;;;;;;697234;28;790;-85
2022/03/26 00:41:10;;;;;;;;;;;22.20;27.10;;;;;;696952;28;814;-81
2022/03/26 00:41:30;;;;;;;;;;;22.20;27.20;;;;;;697011;28;996;-81
2022/03/26 00:41:51;;;;;;;;;;;22.20;27.20;;;;;;696866;28;1028;-82
2022/03/26 00:42:12;;;;;;;;;;;22.30;27.20;;;;;;696905;28;814;-81
2022/03/26 00:42:32;;;;;;;;;;;22.20;27.10;;;;;;696999;28;928;-80
2022/03/26 00:42:53;;;;;;;;;;;22.20;27.10;;;;;;697196;28;778;-85
2022/03/26 00:43:14;;;;;;;;;;;22.20;27.10;;;;;;696538;28;901;-87
2022/03/26 00:43:35;;;;;;;;;;;22.20;28.20;;;;;;696813;28;810;-86
2022/03/26 00:43:55;;;;;;;;;;;22.20;27.30;;;;;;696377;28;1301;-85
2022/03/26 00:44:16;;;;;;;;;;;22.20;27.20;;;;;;696889;28;838;-84
2022/03/26 00:44:37;;;;;;;;;;;22.20;27.10;;;;;;696725;28;873;-81
2022/03/26 00:44:58;;;;;;;;;;;22.20;27.10;;;;;;697288;28;806;-85
2022/03/26 00:45:19;;;;;;;;;;;22.20;27.50;;;;;;696801;28;1212;-87
2022/03/26 00:45:40;;;;;;;;;;;22.20;27.20;;;;;;696744;28;1236;-85
2022/03/26 00:46:00;;;;;;;;;;;22.20;27.20;;;;;;696755;28;878;-86
2022/03/26 00:46:21;;;;;;;;;;;22.20;27.70;;;;;;696981;28;710;-80
2022/03/26 00:46:44;;;;;;;;;;;22.20;27.10;;;;;;696727;28;834;-80
2022/03/26 00:47:06;;;;;;;;;;;22.20;27.10;;;;;;697523;28;818;-85
2022/03/26 00:47:26;;;;;;;;;;;22.20;27.20;;;;;;698801;28;857;-82
2022/03/26 00:47:47;;;;;;;;;;;22.20;27.30;;;;;;696979;28;1037;-85
2022/03/26 00:48:08;;;;;;;;;;;22.20;27.20;;;;;;697135;28;810;-86
2022/03/26 00:48:28;;;;;;;;;;;22.30;27.40;;;;;;696936;28;810;-80
2022/03/26 00:48:49;;;;;;;;;;;22.20;27.20;;;;;;697036;28;873;-81
2022/03/26 00:49:10;;;;;;;;;;;22.20;27.70;;;;;;696914;28;747;-80
2022/03/26 00:49:30;;;;;;;;;;;22.20;27.70;;;;;;696531;28;851;-81
2022/03/26 00:49:51;;;;;;;;;;;22.20;27.10;;;;;;696926;28;905;-80
2022/03/26 00:50:12;;;;;;;;;;;22.20;27.10;;;;;;696744;28;813;-81
2022/03/26 00:50:32;;;;;;;;;;;22.20;27.60;;;;;;696767;28;893;-81
2022/03/26 00:50:53;;;;;;;;;;;22.20;27.10;;;;;;696880;28;822;-81
2022/03/26 00:51:17;;;;;;;;;;;22.20;27.30;;;;;;696663;28;853;-81
2022/03/26 00:51:37;;;;;;;;;;;22.20;27.30;;;;;;696485;28;1378;-81
2022/03/26 00:51:58;;;;;;;;;;;22.20;27.40;;;;;;696748;28;873;-80
2022/03/26 00:52:19;;;;;;;;;;;22.20;27.60;;;;;;696865;28;802;-80
2022/03/26 00:52:39;;;;;;;;;;;22.20;27.30;;;;;;693941;28;842;-84
2022/03/26 00:53:00;;;;;;;;;;;22.20;27.20;;;;;;694052;28;791;-81
2022/03/26 00:53:20;;;;;;;;;;;22.20;27.50;;;;;;694349;28;861;-81
2022/03/26 00:53:41;;;;;;;;;;;22.20;28.60;;;;;;696722;28;957;-81
2022/03/26 00:54:02;;;;;;;;;;;22.20;27.20;;;;;;693797;28;1442;-80
2022/03/26 00:54:23;;;;;;;;;;;22.20;27.10;;;;;;694403;28;830;-80
2022/03/26 00:54:44;;;;;;;;;;;22.20;27.20;;;;;;696696;28;960;-81
2022/03/26 00:55:05;;;;;;;;;;;22.20;27.30;;;;;;696754;28;834;-80
2022/03/26 00:55:25;;;;;;;;;;;22.20;27.50;;;;;;696660;28;974;-80
2022/03/26 00:55:46;;;;;;;;;;;22.20;27.30;;;;;;696772;28;893;-79
2022/03/26 00:56:06;;;;;;;;;;;22.20;27.20;;;;;;696932;28;949;-80
2022/03/26 00:56:27;;;;;;;;;;;23.60;28.20;;;;;;696593;28;1187;-81
2022/03/26 00:56:47;;;;;;;;;;;22.20;27.10;;;;;;696754;28;1902;-81
2022/03/26 00:57:09;;;;;;;;;;;22.20;27.10;;;;;;696806;28;802;-80
2022/03/26 00:57:30;;;;;;;;;;;22.20;27.20;;;;;;696823;28;869;-79
2022/03/26 00:57:50;;;;;;;;;;;22.20;27.50;;;;;;696986;28;909;-81
2022/03/26 00:58:11;;;;;;;;;;;22.20;27.40;;;;;;696887;28;853;-82
2022/03/26 00:58:32;;;;;;;;;;;22.20;27.10;;;;;;696951;28;790;-79
2022/03/26 00:58:53;;;;;;;;;;;22.20;27.60;;;;;;696665;28;1597;-80
2022/03/26 00:59:14;;;;;;;;;;;22.20;27.10;;;;;;696722;28;923;-81
2022/03/26 00:59:34;;;;;;;;;;;22.20;27.40;;;;;;696633;28;898;-80
2022/03/26 00:59:58;;;;;;;;;;;22.20;27.40;;;;;;696806;28;873;-80
2022/03/26 01:00:18;;;;;;;;;;;22.20;28.00;;;;;;696985;28;901;-80
2022/03/26 01:00:39;;;;;;;;;;;22.20;27.50;;;;;;697449;28;831;-79
2022/03/26 01:01:00;;;;;;;;;;;22.20;27.50;;;;;;699521;28;872;-81
2022/03/26 01:01:20;;;;;;;;;;;22.20;27.40;;;;;;699592;28;976;-81
2022/03/26 01:01:41;;;;;;;;;;;22.20;27.10;;;;;;699474;28;822;-81
2022/03/26 01:02:01;;;;;;;;;;;22.20;27.10;;;;;;699562;28;964;-80
2022/03/26 01:02:22;;;;;;;;;;;22.20;27.20;;;;;;699291;28;877;-81
2022/03/26 01:02:43;;;;;;;;;;;22.20;27.40;;;;;;696920;28;905;-80
2022/03/26 01:03:08;;;;;;;;;;;22.20;28.00;;;;;;696801;28;850;-81
2022/03/26 01:03:29;;;;;;;;;;;22.20;27.50;;;;;;696857;28;818;-81
2022/03/26 01:03:49;;;;;;;;;;;22.20;27.30;;;;;;696658;28;807;-81
2022/03/26 01:04:10;;;;;;;;;;;22.20;27.20;;;;;;696781;28;830;-80
2022/03/26 01:04:30;;;;;;;;;;;22.20;27.10;;;;;;696610;28;897;-81
2022/03/26 01:04:51;;;;;;;;;;;22.20;27.50;;;;;;694045;28;898;-80
2022/03/26 01:05:11;;;;;;;;;;;20.50;26.40;;;;;;693654;28;1228;-80
2022/03/26 01:05:32;;;;;;;;;;;22.20;27.20;;;;;;691285;28;1394;-83
2022/03/26 01:05:53;;;;;;;;;;;22.10;27.30;;;;;;694041;28;888;-81
2022/03/26 01:06:14;;;;;;;;;;;22.10;27.20;;;;;;693849;28;1129;-81
2022/03/26 01:06:35;;;;;;;;;;;22.20;27.10;;;;;;694330;28;877;-80
2022/03/26 01:06:55;;;;;;;;;;;22.10;27.50;;;;;;696800;28;957;-82
2022/03/26 01:07:16;;;;;;;;;;;22.10;27.00;;;;;;696619;28;1086;-81
2022/03/26 01:07:37;;;;;;;;;;;22.20;27.40;;;;;;696615;28;849;-81
2022/03/26 01:07:57;;;;;;;;;;;22.10;27.10;;;;;;696672;28;782;-81
2022/03/26 01:08:18;;;;;;;;;;;22.10;27.10;;;;;;696697;28;1474;-82
2022/03/26 01:08:38;;;;;;;;;;;22.10;27.40;;;;;;696576;28;1222;-81
2022/03/26 01:08:59;;;;;;;;;;;22.10;27.20;;;;;;696726;28;909;-80
2022/03/26 01:09:19;;;;;;;;;;;22.10;27.10;;;;;;696898;28;853;-81
2022/03/26 01:09:40;;;;;;;;;;;22.10;27.20;;;;;;696656;28;953;-82
2022/03/26 01:10:01;;;;;;;;;;;22.10;27.20;;;;;;696959;28;892;-83
2022/03/26 01:10:22;;;;;;;;;;;22.10;28.10;;;;;;699247;28;829;-80
2022/03/26 01:10:44;;;;;;;;;;;22.10;27.60;;;;;;696631;28;909;-82
2022/03/26 01:11:05;;;;;;;;;;;22.10;27.20;;;;;;696921;28;814;-81
2022/03/26 01:11:25;;;;;;;;;;;22.10;27.20;;;;;;697019;28;858;-82
2022/03/26 01:11:46;;;;;;;;;;;22.10;27.30;;;;;;696564;28;1392;-82
2022/03/26 01:12:07;;;;;;;;;;;22.10;27.20;;;;;;696830;28;790;-81
2022/03/26 01:12:27;;;;;;;;;;;22.10;27.60;;;;;;696629;28;881;-83
2022/03/26 01:12:48;;;;;;;;;;;22.10;27.30;;;;;;696838;28;853;-82
2022/03/26 01:13:08;;;;;;;;;;;22.10;27.70;;;;;;696427;28;1160;-82
2022/03/26 01:13:31;;;;;;;;;;;22.10;27.40;;;;;;694157;28;1493;-81
2022/03/26 01:13:56;;;;;;;;;;;22.10;27.20;;;;;;696896;28;901;-84
2022/03/26 01:14:16;;;;;;;;;;;22.10;27.40;;;;;;696798;28;853;-84
2022/03/26 01:14:37;;;;;;;;;;;22.10;27.40;;;;;;693846;28;1165;-81
2022/03/26 01:14:57;;;;;;;;;;;22.10;27.50;;;;;;693957;28;815;-80
2022/03/26 01:15:18;;;;;;;;;;;22.10;27.60;;;;;;692269;28;1219;-81
2022/03/26 01:15:39;;;;;;;;;;;22.10;27.10;;;;;;693506;28;1315;-81
2022/03/26 01:16:00;;;;;;;;;;;22.10;27.30;;;;;;693879;28;944;-83
2022/03/26 01:16:20;;;;;;;;;;;22.10;27.10;;;;;;694071;28;603;-82
2022/03/26 01:16:41;;;;;;;;;;;22.10;27.20;;;;;;693891;28;803;-80
2022/03/26 01:17:02;;;;;;;;;;;22.10;27.20;;;;;;694186;28;1973;-82
2022/03/26 01:17:23;;;;;;;;;;;22.10;27.30;;;;;;696802;28;894;-82
2022/03/26 01:17:43;;;;;;;;;;;22.10;27.60;;;;;;696827;28;881;-81
2022/03/26 01:18:04;;;;;;;;;;;22.10;27.40;;;;;;696511;28;1445;-82
2022/03/26 01:18:25;;;;;;;;;;;22.10;27.30;;;;;;696729;28;841;-81
2022/03/26 01:18:45;;;;;;;;;;;22.10;27.70;;;;;;696685;28;849;-81
2022/03/26 01:19:06;;;;;;;;;;;21.10;27.10;;;;;;693802;28;1488;-83
2022/03/26 01:19:26;;;;;;;;;;;22.10;27.80;;;;;;693986;28;905;-82
2022/03/26 01:19:47;;;;;;;;;;;22.10;27.60;;;;;;694185;28;937;-84
2022/03/26 01:20:08;;;;;;;;;;;22.10;27.70;;;;;;696618;28;519;-84
2022/03/26 01:20:28;;;;;;;;;;;22.10;27.30;;;;;;693762;28;1329;-84
2022/03/26 01:20:49;;;;;;;;;;;22.10;27.80;;;;;;694374;28;877;-82
2022/03/26 01:21:10;;;;;;;;;;;22.10;27.70;;;;;;696539;28;1215;-81
2022/03/26 01:21:30;;;;;;;;;;;22.10;27.30;;;;;;696667;28;882;-83
2022/03/26 01:21:51;;;;;;;;;;;22.10;27.60;;;;;;696570;28;1452;-82
2022/03/26 01:22:11;;;;;;;;;;;22.10;27.50;;;;;;696686;28;810;-82
2022/03/26 01:22:32;;;;;;;;;;;22.10;27.50;;;;;;696648;28;885;-81
2022/03/26 01:22:53;;;;;;;;;;;23.70;28.40;;;;;;697058;28;825;-82
2022/03/26 01:23:13;;;;;;;;;;;22.10;27.60;;;;;;696512;28;1265;-83
2022/03/26 01:23:34;;;;;;;;;;;22.10;27.50;;;;;;696784;28;897;-86
2022/03/26 01:23:55;;;;;;;;;;;22.10;27.60;;;;;;696758;28;974;-81
2022/03/26 01:24:16;;;;;;;;;;;22.00;27.70;;;;;;696677;28;822;-83
2022/03/26 01:24:37;;;;;;;;;;;22.10;27.50;;;;;;696584;28;596;-81
2022/03/26 01:24:57;;;;;;;;;;;22.10;27.40;;;;;;696917;28;1193;-83
2022/03/26 01:25:18;;;;;;;;;;;22.10;27.40;;;;;;699531;28;888;-81
2022/03/26 01:25:38;;;;;;;;;;;22.10;27.70;;;;;;699379;28;913;-80
2022/03/26 01:25:59;;;;;;;;;;;22.10;27.40;;;;;;696550;28;1281;-81
2022/03/26 01:26:19;;;;;;;;;;;22.10;27.50;;;;;;696801;28;821;-82
2022/03/26 01:26:40;;;;;;;;;;;22.10;28.40;;;;;;696582;28;897;-80
2022/03/26 01:27:01;;;;;;;;;;;22.10;27.70;;;;;;696631;28;778;-82
2022/03/26 01:27:22;;;;;;;;;;;22.10;27.90;;;;;;693913;28;834;-79
2022/03/26 01:27:42;;;;;;;;;;;22.10;27.50;;;;;;694297;28;847;-82
2022/03/26 01:28:03;;;;;;;;;;;22.10;27.40;;;;;;696622;28;936;-81
2022/03/26 01:28:24;;;;;;;;;;;22.10;27.40;;;;;;696818;28;857;-83
2022/03/26 01:28:45;;;;;;;;;;;22.10;27.30;;;;;;696586;28;810;-83
2022/03/26 01:29:07;;;;;;;;;;;22.10;27.40;;;;;;696685;28;795;-85
2022/03/26 01:29:28;;;;;;;;;;;24.50;29.00;;;;;;696587;28;1379;-82
2022/03/26 01:29:48;;;;;;;;;;;22.10;27.80;;;;;;696656;28;936;-79
2022/03/26 01:30:09;;;;;;;;;;;22.10;27.40;;;;;;696638;28;937;-81
2022/03/26 01:30:30;;;;;;;;;;;22.10;27.50;;;;;;696558;28;1180;-85
2022/03/26 01:30:50;;;;;;;;;;;22.10;27.50;;;;;;696720;28;925;-81
2022/03/26 01:31:11;;;;;;;;;;;22.10;27.70;;;;;;696611;28;870;-82
2022/03/26 01:31:32;;;;;;;;;;;22.10;27.50;;;;;;696842;28;948;-82
2022/03/26 01:31:53;;;;;;;;;;;22.10;27.40;;;;;;696898;28;810;-80
2022/03/26 01:32:13;;;;;;;;;;;22.10;27.50;;;;;;696912;28;868;-82
2022/03/26 01:32:34;;;;;;;;;;;22.10;28.10;;;;;;696878;28;866;-86
2022/03/26 01:32:55;;;;;;;;;;;22.10;27.50;;;;;;696461;28;925;-80
2022/03/26 01:33:15;;;;;;;;;;;22.10;27.60;;;;;;696576;28;823;-79
2022/03/26 01:33:36;;;;;;;;;;;22.10;27.50;;;;;;696170;28;1576;-81
2022/03/26 01:33:57;;;;;;;;;;;22.10;27.40;;;;;;696575;28;929;-81
2022/03/26 01:34:17;;;;;;;;;;;22.10;27.50;;;;;;696782;28;778;-86
2022/03/26 01:34:38;;;;;;;;;;;22.10;27.30;;;;;;697004;28;893;-81
2022/03/26 01:34:59;;;;;;;;;;;22.10;27.40;;;;;;699297;28;782;-80
2022/03/26 01:35:19;;;;;;;;;;;22.10;27.50;;;;;;699310;28;814;-82
2022/03/26 01:35:40;;;;;;;;;;;22.10;27.50;;;;;;696881;28;767;-80
2022/03/26 01:36:00;;;;;;;;;;;22.10;27.40;;;;;;696420;28;1285;-80
2022/03/26 01:36:22;;;;;;;;;;;22.10;28.00;;;;;;693999;28;1071;-82
2022/03/26 01:36:43;;;;;;;;;;;22.10;27.60;;;;;;693954;28;549;-81
2022/03/26 01:37:04;;;;;;;;;;;22.10;27.50;;;;;;693708;28;1953;-80
2022/03/26 01:37:24;;;;;;;;;;;22.10;27.50;;;;;;693774;28;916;-80
2022/03/26 01:37:45;;;;;;;;;;;22.10;27.40;;;;;;694439;28;890;-79
2022/03/26 01:38:07;;;;;;;;;;;22.10;27.90;;;;;;694310;28;1279;-79
2022/03/26 01:38:27;;;;;;;;;;;22.10;27.40;;;;;;696621;28;878;-81
2022/03/26 01:38:48;;;;;;;;;;;22.10;27.80;;;;;;696785;28;893;-81
2022/03/26 01:39:09;;;;;;;;;;;22.10;27.50;;;;;;696588;28;790;-80
2022/03/26 01:39:30;;;;;;;;;;;22.10;27.40;;;;;;696277;28;878;-86
2022/03/26 01:39:51;;;;;;;;;;;22.10;27.40;;;;;;694026;28;1501;-80
2022/03/26 01:40:11;;;;;;;;;;;22.10;27.30;;;;;;696360;28;842;-81
2022/03/26 01:40:33;;;;;;;;;;;22.10;27.40;;;;;;696597;28;498;-80
2022/03/26 01:40:54;;;;;;;;;;;22.10;27.50;;;;;;696754;28;846;-80
2022/03/26 01:41:14;;;;;;;;;;;22.10;27.60;;;;;;696600;28;791;-81
2022/03/26 01:41:37;;;;;;;;;;;22.10;27.40;;;;;;696771;28;893;-80
2022/03/26 01:42:07;;;;;;;;;;;22.10;27.30;;;;;;696681;28;910;-81
2022/03/26 01:42:28;;;;;;;;;;;22.10;27.40;;;;;;696495;28;1267;-81
2022/03/26 01:42:48;;;;;;;;;;;22.10;27.40;;;;;;696798;28;806;-83
2022/03/26 01:43:09;;;;;;;;;;;22.10;27.60;;;;;;693397;28;1215;-81
2022/03/26 01:43:30;;;;;;;;;;;22.10;27.40;;;;;;693825;28;948;-80
2022/03/26 01:43:50;;;;;;;;;;;22.10;27.30;;;;;;694138;28;815;-80
2022/03/26 01:44:14;;;;;;;;;;;22.10;27.70;;;;;;694319;28;854;-81
2022/03/26 01:44:36;;;;;;;;;;;22.10;27.30;;;;;;696651;28;896;-83
2022/03/26 01:44:57;;;;;;;;;;;22.10;27.50;;;;;;694765;28;1325;-81
2022/03/26 01:45:17;;;;;;;;;;;22.10;27.60;;;;;;696606;28;1246;-83
2022/03/26 01:45:38;;;;;;;;;;;22.10;27.80;;;;;;696610;28;849;-81
2022/03/26 01:45:59;;;;;;;;;;;22.10;27.60;;;;;;693724;28;1303;-83
2022/03/26 01:46:20;;;;;;;;;;;22.10;27.50;;;;;;694007;28;823;-85
2022/03/26 01:46:49;;;;;;;;;;;22.10;27.30;;;;;;694431;28;897;-81
2022/03/26 01:47:10;;;;;;;;;;;22.10;27.30;;;;;;696651;28;811;-82
2022/03/26 01:47:30;;;;;;;;;;;22.10;27.80;;;;;;696656;28;806;-82
2022/03/26 01:47:51;;;;;;;;;;;22.00;27.30;;;;;;696768;28;905;-83
2022/03/26 01:48:11;;;;;;;;;;;20.70;27.20;;;;;;696673;28;1248;-81
2022/03/26 01:48:32;;;;;;;;;;;22.10;27.60;;;;;;696620;28;941;-81
2022/03/26 01:48:53;;;;;;;;;;;22.10;27.30;;;;;;696740;28;893;-83
2022/03/26 01:49:13;;;;;;;;;;;22.10;27.50;;;;;;693992;28;1244;-82
2022/03/26 01:49:34;;;;;;;;;;;22.10;27.40;;;;;;690830;28;1276;-81
2022/03/26 01:49:55;;;;;;;;;;;22.10;28.10;;;;;;691481;28;799;-81
2022/03/26 01:50:15;;;;;;;;;;;22.10;27.60;;;;;;693791;28;909;-83
2022/03/26 01:50:36;;;;;;;;;;;22.10;27.40;;;;;;693598;28;1172;-86
2022/03/26 01:50:57;;;;;;;;;;;22.10;27.30;;;;;;691459;28;906;-85
2022/03/26 01:51:18;;;;;;;;;;;22.10;27.70;;;;;;694405;28;795;-82
2022/03/26 01:51:39;;;;;;;;;;;22.10;27.40;;;;;;696651;28;807;-81
2022/03/26 01:52:00;;;;;;;;;;;22.10;27.80;;;;;;696586;28;862;-80
2022/03/26 01:52:21;;;;;;;;;;;22.10;27.60;;;;;;696786;28;815;-80
2022/03/26 01:52:41;;;;;;;;;;;22.10;27.50;;;;;;694417;28;1278;-82
2022/03/26 01:53:03;;;;;;;;;;;22.00;27.50;;;;;;693786;28;1349;-82
2022/03/26 01:53:24;;;;;;;;;;;22.10;27.60;;;;;;693821;28;1219;-85
2022/03/26 01:53:47;;;;;;;;;;;22.10;27.80;;;;;;693923;28;924;-83
2022/03/26 01:54:07;;;;;;;;;;;22.10;27.40;;;;;;693834;28;861;-82
2022/03/26 01:54:29;;;;;;;;;;;22.10;27.40;;;;;;694605;28;869;-82
2022/03/26 01:54:49;;;;;;;;;;;22.10;27.50;;;;;;697619;28;814;-85
2022/03/26 01:55:10;;;;;;;;;;;22.00;27.60;;;;;;698762;28;858;-82
2022/03/26 01:55:30;;;;;;;;;;;22.10;27.40;;;;;;696856;28;929;-83
2022/03/26 01:55:51;;;;;;;;;;;22.10;27.60;;;;;;696888;28;885;-81
2022/03/26 01:56:12;;;;;;;;;;;22.10;27.60;;;;;;696790;28;886;-83
2022/03/26 01:56:33;;;;;;;;;;;22.10;27.30;;;;;;696777;28;945;-81
2022/03/26 01:56:54;;;;;;;;;;;22.10;27.50;;;;;;696927;28;1894;-84
2022/03/26 01:57:15;;;;;;;;;;;22.00;27.70;;;;;;696853;28;861;-83
2022/03/26 01:57:35;;;;;;;;;;;22.00;27.50;;;;;;696875;28;905;-83
2022/03/26 01:57:56;;;;;;;;;;;22.10;27.70;;;;;;696947;28;834;-83
2022/03/26 01:58:17;;;;;;;;;;;19.90;26.50;;;;;;696762;28;798;-82
2022/03/26 01:58:38;;;;;;;;;;;22.10;27.40;;;;;;696575;28;1232;-85
2022/03/26 01:58:59;;;;;;;;;;;22.10;27.70;;;;;;696577;28;1222;-84
2022/03/26 01:59:20;;;;;;;;;;;22.00;27.30;;;;;;696824;28;822;-81
2022/03/26 01:59:41;;;;;;;;;;;22.10;27.30;;;;;;693809;28;1319;-81
2022/03/26 02:00:03;;;;;;;;;;;22.10;27.40;;;;;;693870;28;830;-82
2022/03/26 02:00:24;;;;;;;;;;;22.10;27.50;;;;;;694470;28;1254;-86
2022/03/26 02:00:45;;;;;;;;;;;22.10;27.70;;;;;;693017;28;1280;-83
2022/03/26 02:01:05;;;;;;;;;;;22.00;27.70;;;;;;691221;28;910;-84
2022/03/26 02:01:26;;;;;;;;;;;22.00;27.80;;;;;;691822;28;882;-81
2022/03/26 02:01:47;;;;;;;;;;;22.00;27.30;;;;;;691097;28;1295;-82
2022/03/26 02:02:09;;;;;;;;;;;22.10;27.40;;;;;;691385;28;1310;-83
2022/03/26 02:02:29;;;;;;;;;;;22.00;27.40;;;;;;691541;28;818;-84
2022/03/26 02:02:50;;;;;;;;;;;22.10;27.80;;;;;;694024;28;881;-82
2022/03/26 02:03:10;;;;;;;;;;;22.00;27.40;;;;;;691048;28;902;-81
2022/03/26 02:03:31;;;;;;;;;;;22.00;27.70;;;;;;688701;28;1364;-83
2022/03/26 02:03:52;;;;;;;;;;;22.10;27.40;;;;;;691767;28;802;-83
2022/03/26 02:04:12;;;;;;;;;;;22.00;27.80;;;;;;693909;28;902;-82
2022/03/26 02:04:36;;;;;;;;;;;22.00;27.70;;;;;;693740;28;802;-85
2022/03/26 02:04:57;;;;;;;;;;;22.10;27.40;;;;;;694233;28;1135;-86
2022/03/26 02:05:19;;;;;;;;;;;22.10;27.50;;;;;;696846;28;802;-82
2022/03/26 02:05:39;;;;;;;;;;;22.00;28.20;;;;;;696751;28;894;-82
2022/03/26 02:06:00;;;;;;;;;;;22.10;27.50;;;;;;696787;28;897;-82
2022/03/26 02:06:22;;;;;;;;;;;22.00;27.40;;;;;;696958;28;795;-82
2022/03/26 02:06:43;;;;;;;;;;;22.00;27.60;;;;;;696717;28;920;-83